Flight Track Log - Related Links

Times and Time Zones

All times are in EDT time to prevent confusion due to time zone crossing. See the SWA1729 flight status page for this flight to view local times or setup timezone preferences in your user account.

Time Position Orientation Groundspeed Altitude Reporting Facility
EDT Latitude Longitude Course Direction KTS MPH feet Rate Location/Type
Sun 10:07:56 PM 29.5956 -95.3131 208° Southwest 209 241 2,800  Level Houston Center
Sun 10:08:19 PM 29.5739 -95.3269 209° Southwest 206 237 4,000 2,727 Climbing Houston Center
Sun 10:09:02 PM 29.5300 -95.3522 207° Southwest 246 283 5,800 2,557 Climbing Houston Center
Sun 10:09:20 PM 29.5133 -95.3617 206° Southwest 233 268 6,600 3,038 Climbing Houston Center
Sun 10:10:21 PM 29.4842 -95.4347 245° Southwest 279 321 9,800 2,705 Climbing Houston Center
Sun 10:11:22 PM 29.5339 -95.5214 303° West 321 369 12,100 2,705 Climbing Houston Center
Sun 10:12:23 PM 29.5881 -95.6133 304° West 343 395 15,300 2,829 Climbing Houston Center
Sun 10:13:25 PM 29.6422 -95.7061 304° West 347 399 17,900 2,341 Climbing Houston Center
Sun 10:14:26 PM 29.6828 -95.8125 294° West 367 422 20,100 2,410 Climbing Houston Center
Sun 10:15:27 PM 29.7106 -95.9292 285° West 379 436 22,800 2,262 Climbing Houston Center
Sun 10:16:28 PM 29.7403 -96.0544 285° West 379 436 24,700 1,623 Climbing Houston Center
Sun 10:17:29 PM 29.7703 -96.1767 286° West 397 457 26,100 1,475 Climbing Houston Center
Sun 10:18:30 PM 29.8000 -96.3042 285° West 413 475 27,700 1,820 Climbing Houston Center
Sun 10:19:31 PM 29.8297 -96.4322 285° West 417 480 29,800 2,016 Climbing Houston Center
Sun 10:20:32 PM 29.8586 -96.5536 285° West 400 460 31,800 1,623 Climbing Houston Center
Sun 10:21:33 PM 29.8872 -96.6739 285° West 394 453 33,100 1,377 Climbing Houston Center
Sun 10:22:34 PM 29.9217 -96.8211 285° West 398 458 34,600 1,475 Climbing Houston Center
Sun 10:23:35 PM 29.9497 -96.9403 285° West 391 450 36,100 689 Climbing Houston Center
Sun 10:24:36 PM 29.9769 -97.0594 285° West 388 447 36,000  Descending Houston Center
Sun 10:25:37 PM 30.0053 -97.1800 285° West 390 449 36,100  Climbing Houston Center
Sun 10:26:39 PM 30.0325 -97.3017 285° West 393 452 36,000  Descending Houston Center
Sun 10:27:40 PM 30.0608 -97.4231 285° West 394 453 36,100 49 Climbing Houston Center
Sun 10:28:41 PM 30.0917 -97.5569 285° West 395 455 36,100  Level Houston Center
Sun 10:29:42 PM 30.1192 -97.6808 284° West 393 452 36,100  Level Houston Center
Sun 10:30:43 PM 30.1472 -97.8042 285° West 392 451 36,100  Level Houston Center
Sun 10:31:44 PM 30.1758 -97.9347 284° West 390 449 36,100  Level Houston Center
Sun 10:32:45 PM 30.2031 -98.0547 285° West 387 445 36,100  Level Houston Center
Sun 10:33:46 PM 30.2297 -98.1775 284° West 392 451 36,100  Level Houston Center
Sun 10:34:47 PM 30.2569 -98.2994 285° West 392 451 36,100  Level Houston Center
Sun 10:35:48 PM 30.2831 -98.4172 284° West 394 453 36,100  Level Houston Center
Sun 10:36:49 PM 30.3092 -98.5408 284° West 380 437 36,100  Level Houston Center
Sun 10:37:50 PM 30.3358 -98.6622 284° West 383 441 36,100  Level Houston Center
Sun 10:38:51 PM 30.3611 -98.7836 284° West 383 441 36,100  Level Houston Center
Sun 10:39:52 PM 30.3894 -98.9050 285° West 386 444 36,100  Level Houston Center
Sun 10:40:53 PM 30.4164 -99.0272 284° West 388 447 36,100  Level Houston Center
Sun 10:41:53 PM 30.4403 -99.1442 283° West 385 443 36,100 -50 Level Houston Center
Sun 10:42:54 PM 30.4672 -99.2642 285° West 386 444 36,000 -49 Descending Houston Center
Sun 10:43:55 PM 30.4919 -99.3853 283° West 387 445 36,000 49 Level Houston Center
Sun 10:44:56 PM 30.5183 -99.5064 284° West 389 448 36,100 49 Climbing Houston Center
Sun 10:45:57 PM 30.5431 -99.6269 283° West 385 443 36,100  Level Houston Center
Sun 10:46:58 PM 30.5725 -99.7719 283° West 384 442 36,100  Level Houston Center
Sun 10:47:59 PM 30.5972 -99.8928 283° West 388 447 36,100  Level Houston Center
Sun 10:49:00 PM 30.6228 -100.0128 284° West 385 443 36,100 -48 Level Houston Center
Sun 10:50:03 PM 30.6478 -100.1322 284° West 384 442 36,000  Descending Houston Center
Sun 10:51:02 PM 30.6736 -100.2492 284° West 376 433 36,100  Climbing Houston Center
Sun 10:52:03 PM 30.6969 -100.3736 282° West 394 453 36,000  Descending Houston Center
Sun 10:53:03 PM 30.7211 -100.4931 283° West 386 444 36,100 50 Climbing Houston Center
Sun 10:54:04 PM 30.7456 -100.6125 283° West 383 441 36,100 -49 Level Houston Center
Sun 10:55:05 PM 30.7692 -100.7328 283° West 384 442 36,000  Descending Houston Center
Sun 10:56:06 PM 30.7933 -100.8539 283° West 385 443 36,100 49 Climbing Houston Center
Sun 10:57:07 PM 30.8222 -100.9989 283° West 386 444 36,100 -49 Level Houston Center
Sun 10:58:08 PM 30.8458 -101.1197 283° West 385 443 36,000 -49 Descending Houston Center
Sun 10:59:09 PM 30.8706 -101.2417 283° West 386 444 36,000 49 Level Houston Center
Sun 11:00:10 PM 30.8942 -101.3606 283° West 384 442 36,100 63 Climbing Houston Center
Sun 11:00:44 PM 30.9078 -101.4342 282° West 388 447 36,100 -63 Level Albuquerque Center
Sun 11:01:45 PM 30.9311 -101.5578 282° West 390 449 36,000  Descending Albuquerque Center
Sun 11:02:47 PM 30.9556 -101.6789 283° West 388 447 36,100 49 Climbing Albuquerque Center
Sun 11:03:48 PM 30.9778 -101.8011 282° West 386 444 36,100  Level Albuquerque Center
Sun 11:04:49 PM 31.0011 -101.9236 283° West 386 444 36,100  Level Albuquerque Center
Sun 11:05:51 PM 31.0217 -102.0403 282° West 391 450 36,100  Level Albuquerque Center
Sun 11:06:52 PM 31.0450 -102.1619 283° West 390 449 36,100  Level Albuquerque Center
Sun 11:07:53 PM 31.0731 -102.3069 283° West 386 444 36,100  Level Albuquerque Center
Sun 11:08:55 PM 31.0950 -102.4272 282° West 383 441 36,100  Level Albuquerque Center
Sun 11:09:56 PM 31.1175 -102.5481 282° West 382 440 36,100  Level Albuquerque Center
Sun 11:10:57 PM 31.1372 -102.6572 282° West 377 434 36,100 -49 Level Albuquerque Center
Sun 11:11:59 PM 31.1594 -102.7800 282° West 383 441 36,000 -49 Descending Albuquerque Center
Sun 11:13:00 PM 31.1856 -102.9253 282° West 383 441 36,000  Level Albuquerque Center
Sun 11:14:02 PM 31.2075 -103.0481 282° West 385 443 36,000 49 Level Albuquerque Center
Sun 11:15:03 PM 31.2300 -103.1703 282° West 386 444 36,100 49 Climbing Albuquerque Center
Sun 11:16:04 PM 31.2519 -103.2947 282° West 388 447 36,100  Level Albuquerque Center
Sun 11:17:06 PM 31.2722 -103.4178 281° West 387 445 36,100  Level Albuquerque Center
Sun 11:18:07 PM 31.2947 -103.5419 282° West 389 448 36,100 -49 Level Albuquerque Center
Sun 11:19:09 PM 31.3153 -103.6639 281° West 386 444 36,000 -49 Descending Albuquerque Center
Sun 11:20:10 PM 31.3386 -103.7897 282° West 381 438 36,000  Level Albuquerque Center
Sun 11:21:12 PM 31.3606 -103.9125 282° West 385 443 36,000 49 Level Albuquerque Center
Sun 11:22:13 PM 31.3822 -104.0322 282° West 381 438 36,100 49 Climbing Albuquerque Center
Sun 11:23:15 PM 31.4014 -104.1533 281° West 380 437 36,100 -49 Level Albuquerque Center
Sun 11:24:16 PM 31.4272 -104.2983 282° West 380 437 36,000  Descending Albuquerque Center
Sun 11:25:17 PM 31.4475 -104.4200 281° West 382 440 36,100 49 Climbing Albuquerque Center
Sun 11:26:19 PM 31.4617 -104.5400 278° West 377 434 36,100 -195 Level Albuquerque Center
Sun 11:27:20 PM 31.4747 -104.6628 277° West 381 438 35,700 -1,610 Descending Albuquerque Center
Sun 11:28:22 PM 31.4872 -104.7819 277° West 373 429 32,800 -2,585 Descending Albuquerque Center
Sun 11:29:23 PM 31.5003 -104.9039 277° West 377 434 30,400 -2,311 Descending Albuquerque Center
Sun 11:30:24 PM 31.5119 -105.0217 277° West 374 430 28,100 -2,439 Descending Albuquerque Center
Sun 11:31:26 PM 31.5256 -105.1628 276° West 369 425 25,400 -2,390 Descending Albuquerque Center
Sun 11:32:27 PM 31.5367 -105.2736 277° West 361 415 23,200 -2,143 Descending Albuquerque Center
Sun 11:33:18 PM 31.5453 -105.3639 276° West 324 373 21,400 -2,085 Descending Albuquerque Center
Sun 11:34:25 PM 31.5572 -105.4831 277° West 314 361 19,100 -2,079 Descending Albuquerque Center
Sun 11:35:25 PM 31.5656 -105.5833 276° West 315 362 17,000 -1,875 Descending Albuquerque Center
Sun 11:36:33 PM 31.5761 -105.6753 278° West 301 346 15,100 -1,869 Descending Albuquerque Center
Sun 11:37:27 PM 31.5839 -105.7733 275° West 287 330 13,200 -1,947 Descending Albuquerque Center
Sun 11:38:27 PM 31.6167 -105.8575 295° West 287 330 11,400 -1,537 Descending Albuquerque Center
Sun 11:39:28 PM 31.6550 -105.9375 299° West 284 327 10,100 -1,240 Descending Albuquerque Center
Sun 11:40:28 PM 31.6917 -106.0083 301° West 245 282 8,900 -1,091 Descending Albuquerque Center
Sun 11:41:29 PM 31.7175 -106.0792 293° West 231 266 7,900 -1,033 Descending Albuquerque Center
Sun 11:42:30 PM 31.7467 -106.1567 294° West 243 280 6,800 -793 Descending Albuquerque Center
Sun 11:43:30 PM 31.7711 -106.2206 294° West 218 251 6,300 -645 Descending Albuquerque Center
Sun 11:44:31 PM 31.7894 -106.2736 292° West 165 190 5,500 -744 Descending Albuquerque Center
Sun 11:45:31 PM 31.7972 -106.3167 282° West 116 133 4,800 -706 Descending Albuquerque Center
Sun 11:46:47 PM 31.8017 -106.3647 276° West 129 148 3,900 -711 Descending Albuquerque Center
Sun 11:48:00 PM 31.8000 -106.3667 270° West  Level FlightAware Approximate
Sun 11:55:00 PM 31.8072 -106.3764 270° West  Level Estimated
Sun 11:56:00 PM 31.8072 -106.3764 270° West  Level Estimated
Sun 11:57:00 PM 31.8072 -106.3764 270° West  Level Estimated
Sun 11:58:00 PM 31.8072 -106.3764 270° West  Level Estimated

Login

Don't have an account? Register now (free) for customized features, flight alerts, and more!